sensor_id;sensor_type;location;lat;lon;timestamp;temperature;humidity
75683;HTU21D;64295;44.772;39.872;2023-04-03T00:01:14;11.46;53.34
75683;HTU21D;64295;44.772;39.872;2023-04-03T00:03:40;11.47;53.39
75683;HTU21D;64295;44.772;39.872;2023-04-03T00:06:10;11.47;53.43
75683;HTU21D;64295;44.772;39.872;2023-04-03T00:08:38;11.45;53.49
75683;HTU21D;64295;44.772;39.872;2023-04-03T00:11:04;11.44;53.54
75683;HTU21D;64295;44.772;39.872;2023-04-03T00:13:32;11.44;53.56
75683;HTU21D;64295;44.772;39.872;2023-04-03T00:15:59;11.43;53.59
75683;HTU21D;64295;44.772;39.872;2023-04-03T00:18:25;11.42;53.59
75683;HTU21D;64295;44.772;39.872;2023-04-03T00:20:51;11.40;53.68
75683;HTU21D;64295;44.772;39.872;2023-04-03T00:23:17;11.39;53.78
75683;HTU21D;64295;44.772;39.872;2023-04-03T00:25:43;11.41;53.88
75683;HTU21D;64295;44.772;39.872;2023-04-03T00:28:09;11.40;54.04
75683;HTU21D;64295;44.772;39.872;2023-04-03T00:30:35;11.41;54.17
75683;HTU21D;64295;44.772;39.872;2023-04-03T00:33:01;11.38;54.33
75683;HTU21D;64295;44.772;39.872;2023-04-03T00:35:28;11.34;54.46
75683;HTU21D;64295;44.772;39.872;2023-04-03T00:37:55;11.31;54.54
75683;HTU21D;64295;44.772;39.872;2023-04-03T00:40:23;11.30;54.64
75683;HTU21D;64295;44.772;39.872;2023-04-03T00:42:54;11.30;54.71
75683;HTU21D;64295;44.772;39.872;2023-04-03T00:45:33;11.29;54.90
75683;HTU21D;64295;44.772;39.872;2023-04-03T00:48:00;11.29;54.82
75683;HTU21D;64295;44.772;39.872;2023-04-03T00:50:29;11.28;54.94
75683;HTU21D;64295;44.772;39.872;2023-04-03T00:52:56;11.25;55.14
75683;HTU21D;64295;44.772;39.872;2023-04-03T00:55:23;11.15;55.38
75683;HTU21D;64295;44.772;39.872;2023-04-03T00:57:49;11.16;55.49
75683;HTU21D;64295;44.772;39.872;2023-04-03T01:00:19;11.14;55.68
75683;HTU21D;64295;44.772;39.872;2023-04-03T01:02:45;11.12;55.69
75683;HTU21D;64295;44.772;39.872;2023-04-03T01:05:13;11.13;55.82
75683;HTU21D;64295;44.772;39.872;2023-04-03T01:07:40;11.13;55.84
75683;HTU21D;64295;44.772;39.872;2023-04-03T01:10:10;11.16;55.90
75683;HTU21D;64295;44.772;39.872;2023-04-03T01:12:38;11.17;55.94
75683;HTU21D;64295;44.772;39.872;2023-04-03T01:15:11;11.18;56.03
75683;HTU21D;64295;44.772;39.872;2023-04-03T01:17:40;11.18;56.07
75683;HTU21D;64295;44.772;39.872;2023-04-03T01:25:41;11.18;55.97
75683;HTU21D;64295;44.772;39.872;2023-04-03T01:28:14;11.20;56.00
75683;HTU21D;64295;44.772;39.872;2023-04-03T01:33:22;11.25;55.96
75683;HTU21D;64295;44.772;39.872;2023-04-03T01:35:48;11.27;55.97
75683;HTU21D;64295;44.772;39.872;2023-04-03T01:38:14;11.29;55.98
75683;HTU21D;64295;44.772;39.872;2023-04-03T01:40:40;11.31;56.00
75683;HTU21D;64295;44.772;39.872;2023-04-03T01:43:06;11.33;55.98
75683;HTU21D;64295;44.772;39.872;2023-04-03T01:45:32;11.39;55.94
75683;HTU21D;64295;44.772;39.872;2023-04-03T01:47:58;11.42;55.94
75683;HTU21D;64295;44.772;39.872;2023-04-03T01:50:25;11.40;55.94
75683;HTU21D;64295;44.772;39.872;2023-04-03T01:52:51;11.41;55.99
75683;HTU21D;64295;44.772;39.872;2023-04-03T01:55:17;11.41;56.00
75683;HTU21D;64295;44.772;39.872;2023-04-03T01:57:43;11.43;55.97
75683;HTU21D;64295;44.772;39.872;2023-04-03T02:00:10;11.44;55.89
75683;HTU21D;64295;44.772;39.872;2023-04-03T02:02:40;11.46;55.86
75683;HTU21D;64295;44.772;39.872;2023-04-03T02:05:06;11.45;55.71
75683;HTU21D;64295;44.772;39.872;2023-04-03T02:07:32;11.44;55.65
75683;HTU21D;64295;44.772;39.872;2023-04-03T02:09:58;11.43;55.76
75683;HTU21D;64295;44.772;39.872;2023-04-03T02:12:25;11.39;55.93
75683;HTU21D;64295;44.772;39.872;2023-04-03T02:14:50;11.34;56.10
75683;HTU21D;64295;44.772;39.872;2023-04-03T02:17:16;11.29;56.25
75683;HTU21D;64295;44.772;39.872;2023-04-03T02:19:43;11.23;56.47
75683;HTU21D;64295;44.772;39.872;2023-04-03T02:22:09;11.14;56.61
75683;HTU21D;64295;44.772;39.872;2023-04-03T02:24:35;11.13;56.61
75683;HTU21D;64295;44.772;39.872;2023-04-03T02:27:01;11.08;56.68
75683;HTU21D;64295;44.772;39.872;2023-04-03T02:29:27;11.05;56.69
75683;HTU21D;64295;44.772;39.872;2023-04-03T02:31:53;11.03;56.71
75683;HTU21D;64295;44.772;39.872;2023-04-03T02:34:20;11.00;56.77
75683;HTU21D;64295;44.772;39.872;2023-04-03T02:36:47;10.98;56.83
75683;HTU21D;64295;44.772;39.872;2023-04-03T02:39:15;10.98;56.82
75683;HTU21D;64295;44.772;39.872;2023-04-03T02:41:41;10.96;56.88
75683;HTU21D;64295;44.772;39.872;2023-04-03T02:44:13;10.99;56.89
75683;HTU21D;64295;44.772;39.872;2023-04-03T02:46:39;10.98;56.94
75683;HTU21D;64295;44.772;39.872;2023-04-03T02:49:05;10.98;56.87
75683;HTU21D;64295;44.772;39.872;2023-04-03T02:51:31;10.97;56.83
75683;HTU21D;64295;44.772;39.872;2023-04-03T02:53:57;10.94;56.92
75683;HTU21D;64295;44.772;39.872;2023-04-03T02:56:27;10.92;56.97
75683;HTU21D;64295;44.772;39.872;2023-04-03T02:58:53;10.88;57.16
75683;HTU21D;64295;44.772;39.872;2023-04-03T03:01:20;10.83;57.26
75683;HTU21D;64295;44.772;39.872;2023-04-03T03:03:46;10.84;57.26
75683;HTU21D;64295;44.772;39.872;2023-04-03T03:06:14;10.86;57.24
75683;HTU21D;64295;44.772;39.872;2023-04-03T03:08:41;10.90;57.10
75683;HTU21D;64295;44.772;39.872;2023-04-03T03:11:07;10.96;57.01
75683;HTU21D;64295;44.772;39.872;2023-04-03T03:13:33;10.99;56.96
75683;HTU21D;64295;44.772;39.872;2023-04-03T03:16:01;11.03;56.96
75683;HTU21D;64295;44.772;39.872;2023-04-03T03:18:27;11.17;56.93
75683;HTU21D;64295;44.772;39.872;2023-04-03T03:20:57;11.24;56.90
75683;HTU21D;64295;44.772;39.872;2023-04-03T03:23:26;11.28;56.90
75683;HTU21D;64295;44.772;39.872;2023-04-03T03:25:56;11.32;56.95
75683;HTU21D;64295;44.772;39.872;2023-04-03T03:28:23;11.36;56.87
75683;HTU21D;64295;44.772;39.872;2023-04-03T03:30:49;11.40;56.84
75683;HTU21D;64295;44.772;39.872;2023-04-03T03:33:17;11.44;56.83
75683;HTU21D;64295;44.772;39.872;2023-04-03T03:35:43;11.52;56.74
75683;HTU21D;64295;44.772;39.872;2023-04-03T03:38:10;11.56;56.61
75683;HTU21D;64295;44.772;39.872;2023-04-03T03:40:37;11.58;56.52
75683;HTU21D;64295;44.772;39.872;2023-04-03T03:43:03;11.53;56.50
75683;HTU21D;64295;44.772;39.872;2023-04-03T03:45:29;11.54;56.52
75683;HTU21D;64295;44.772;39.872;2023-04-03T03:47:56;11.52;56.49
75683;HTU21D;64295;44.772;39.872;2023-04-03T03:50:22;11.53;56.37
75683;HTU21D;64295;44.772;39.872;2023-04-03T03:52:49;11.54;56.21
75683;HTU21D;64295;44.772;39.872;2023-04-03T03:55:15;11.57;56.05
75683;HTU21D;64295;44.772;39.872;2023-04-03T03:57:41;11.61;55.94
75683;HTU21D;64295;44.772;39.872;2023-04-03T04:00:08;11.63;55.87
75683;HTU21D;64295;44.772;39.872;2023-04-03T04:02:41;11.67;55.78
75683;HTU21D;64295;44.772;39.872;2023-04-03T04:05:09;11.72;55.72
75683;HTU21D;64295;44.772;39.872;2023-04-03T04:07:36;11.77;55.71
75683;HTU21D;64295;44.772;39.872;2023-04-03T04:10:03;11.78;55.74
75683;HTU21D;64295;44.772;39.872;2023-04-03T04:12:29;11.87;55.75
75683;HTU21D;64295;44.772;39.872;2023-04-03T04:14:55;12.02;55.75
75683;HTU21D;64295;44.772;39.872;2023-04-03T04:17:21;12.17;55.65
75683;HTU21D;64295;44.772;39.872;2023-04-03T04:19:48;12.22;55.68
75683;HTU21D;64295;44.772;39.872;2023-04-03T04:22:14;12.29;55.74
75683;HTU21D;64295;44.772;39.872;2023-04-03T04:24:40;12.32;55.92
75683;HTU21D;64295;44.772;39.872;2023-04-03T04:27:07;12.41;56.15
75683;HTU21D;64295;44.772;39.872;2023-04-03T04:29:33;12.49;56.33
75683;HTU21D;64295;44.772;39.872;2023-04-03T04:32:05;12.51;56.51
75683;HTU21D;64295;44.772;39.872;2023-04-03T04:34:31;12.52;56.55
75683;HTU21D;64295;44.772;39.872;2023-04-03T04:36:59;12.56;56.74
75683;HTU21D;64295;44.772;39.872;2023-04-03T04:39:26;12.60;56.87
75683;HTU21D;64295;44.772;39.872;2023-04-03T04:41:55;12.63;57.10
75683;HTU21D;64295;44.772;39.872;2023-04-03T04:44:22;12.69;57.19
75683;HTU21D;64295;44.772;39.872;2023-04-03T04:46:50;12.70;57.19
75683;HTU21D;64295;44.772;39.872;2023-04-03T04:49:15;12.74;57.39
75683;HTU21D;64295;44.772;39.872;2023-04-03T04:51:42;12.77;57.97
75683;HTU21D;64295;44.772;39.872;2023-04-03T04:54:09;12.77;58.41
75683;HTU21D;64295;44.772;39.872;2023-04-03T04:56:36;12.80;59.19
75683;HTU21D;64295;44.772;39.872;2023-04-03T04:59:02;12.80;59.00
75683;HTU21D;64295;44.772;39.872;2023-04-03T05:01:28;12.84;59.47
75683;HTU21D;64295;44.772;39.872;2023-04-03T05:04:01;12.85;59.55
75683;HTU21D;64295;44.772;39.872;2023-04-03T05:06:27;12.87;59.81
75683;HTU21D;64295;44.772;39.872;2023-04-03T05:08:56;12.89;60.25
75683;HTU21D;64295;44.772;39.872;2023-04-03T05:11:23;12.89;60.38
75683;HTU21D;64295;44.772;39.872;2023-04-03T05:13:51;12.91;60.44
75683;HTU21D;64295;44.772;39.872;2023-04-03T05:16:18;12.91;60.41
75683;HTU21D;64295;44.772;39.872;2023-04-03T05:18:43;12.93;60.39
75683;HTU21D;64295;44.772;39.872;2023-04-03T05:21:16;12.93;60.36
75683;HTU21D;64295;44.772;39.872;2023-04-03T05:23:45;12.96;60.33
75683;HTU21D;64295;44.772;39.872;2023-04-03T05:26:11;12.95;60.16
75683;HTU21D;64295;44.772;39.872;2023-04-03T05:28:38;12.96;60.10
75683;HTU21D;64295;44.772;39.872;2023-04-03T05:31:05;12.99;60.03
75683;HTU21D;64295;44.772;39.872;2023-04-03T05:33:34;13.02;59.96
75683;HTU21D;64295;44.772;39.872;2023-04-03T05:36:05;13.04;60.00
75683;HTU21D;64295;44.772;39.872;2023-04-03T05:38:36;13.07;59.96
75683;HTU21D;64295;44.772;39.872;2023-04-03T05:41:02;13.11;60.14
75683;HTU21D;64295;44.772;39.872;2023-04-03T05:43:28;13.17;60.37
75683;HTU21D;64295;44.772;39.872;2023-04-03T05:45:55;13.20;60.28
75683;HTU21D;64295;44.772;39.872;2023-04-03T05:48:23;13.25;60.33
75683;HTU21D;64295;44.772;39.872;2023-04-03T05:50:49;13.30;60.25
75683;HTU21D;64295;44.772;39.872;2023-04-03T05:53:23;13.34;60.23
75683;HTU21D;64295;44.772;39.872;2023-04-03T05:55:51;13.33;60.12
75683;HTU21D;64295;44.772;39.872;2023-04-03T05:58:18;13.35;60.17
75683;HTU21D;64295;44.772;39.872;2023-04-03T06:00:46;13.37;60.18
75683;HTU21D;64295;44.772;39.872;2023-04-03T06:03:12;13.40;60.18
75683;HTU21D;64295;44.772;39.872;2023-04-03T06:05:38;13.40;60.04
75683;HTU21D;64295;44.772;39.872;2023-04-03T06:08:03;13.46;60.13
75683;HTU21D;64295;44.772;39.872;2023-04-03T06:10:30;13.49;60.36
75683;HTU21D;64295;44.772;39.872;2023-04-03T06:12:56;13.49;60.43
75683;HTU21D;64295;44.772;39.872;2023-04-03T06:15:22;13.49;60.51
75683;HTU21D;64295;44.772;39.872;2023-04-03T06:17:48;13.51;60.58
75683;HTU21D;64295;44.772;39.872;2023-04-03T06:20:14;13.51;60.82
75683;HTU21D;64295;44.772;39.872;2023-04-03T06:22:41;13.50;60.85
75683;HTU21D;64295;44.772;39.872;2023-04-03T06:25:08;13.52;61.03
75683;HTU21D;64295;44.772;39.872;2023-04-03T06:27:34;13.51;61.09
75683;HTU21D;64295;44.772;39.872;2023-04-03T06:30:00;13.49;61.16
75683;HTU21D;64295;44.772;39.872;2023-04-03T06:32:26;13.49;61.28
75683;HTU21D;64295;44.772;39.872;2023-04-03T06:34:52;13.48;61.19
75683;HTU21D;64295;44.772;39.872;2023-04-03T06:37:21;13.48;61.16
75683;HTU21D;64295;44.772;39.872;2023-04-03T06:39:48;13.51;61.33
75683;HTU21D;64295;44.772;39.872;2023-04-03T06:42:14;13.48;61.25
75683;HTU21D;64295;44.772;39.872;2023-04-03T06:44:50;13.47;61.36
75683;HTU21D;64295;44.772;39.872;2023-04-03T06:47:17;13.46;61.47
75683;HTU21D;64295;44.772;39.872;2023-04-03T06:49:43;13.44;61.67
75683;HTU21D;64295;44.772;39.872;2023-04-03T06:52:09;13.41;62.08
75683;HTU21D;64295;44.772;39.872;2023-04-03T06:54:37;13.36;62.46
75683;HTU21D;64295;44.772;39.872;2023-04-03T06:57:03;13.31;63.11
75683;HTU21D;64295;44.772;39.872;2023-04-03T06:59:29;13.20;63.29
75683;HTU21D;64295;44.772;39.872;2023-04-03T07:01:56;13.16;63.62
75683;HTU21D;64295;44.772;39.872;2023-04-03T07:04:21;13.09;64.05
75683;HTU21D;64295;44.772;39.872;2023-04-03T07:06:47;13.02;64.50
75683;HTU21D;64295;44.772;39.872;2023-04-03T07:09:14;12.95;64.68
75683;HTU21D;64295;44.772;39.872;2023-04-03T07:11:40;12.92;65.00
75683;HTU21D;64295;44.772;39.872;2023-04-03T07:14:06;12.87;65.38
75683;HTU21D;64295;44.772;39.872;2023-04-03T07:16:34;12.82;65.58
75683;HTU21D;64295;44.772;39.872;2023-04-03T07:19:01;12.81;65.80
75683;HTU21D;64295;44.772;39.872;2023-04-03T07:21:27;12.80;65.91
75683;HTU21D;64295;44.772;39.872;2023-04-03T07:23:53;12.79;65.93
75683;HTU21D;64295;44.772;39.872;2023-04-03T07:26:20;12.78;66.01
75683;HTU21D;64295;44.772;39.872;2023-04-03T07:28:49;12.76;66.32
75683;HTU21D;64295;44.772;39.872;2023-04-03T07:31:16;12.73;65.92
75683;HTU21D;64295;44.772;39.872;2023-04-03T07:33:43;12.70;66.04
75683;HTU21D;64295;44.772;39.872;2023-04-03T07:36:15;12.71;66.03
75683;HTU21D;64295;44.772;39.872;2023-04-03T07:38:41;12.70;65.94
75683;HTU21D;64295;44.772;39.872;2023-04-03T07:41:12;12.70;65.95
75683;HTU21D;64295;44.772;39.872;2023-04-03T07:43:39;12.72;65.95
75683;HTU21D;64295;44.772;39.872;2023-04-03T07:46:06;12.70;65.90
75683;HTU21D;64295;44.772;39.872;2023-04-03T07:48:32;12.72;65.92
75683;HTU21D;64295;44.772;39.872;2023-04-03T07:51:02;12.73;66.14
75683;HTU21D;64295;44.772;39.872;2023-04-03T07:53:28;12.71;66.32
75683;HTU21D;64295;44.772;39.872;2023-04-03T07:55:57;12.70;66.43
75683;HTU21D;64295;44.772;39.872;2023-04-03T07:58:23;12.70;66.50
75683;HTU21D;64295;44.772;39.872;2023-04-03T08:00:49;12.69;66.28
75683;HTU21D;64295;44.772;39.872;2023-04-03T08:03:15;12.69;66.30
75683;HTU21D;64295;44.772;39.872;2023-04-03T08:05:46;12.71;66.22
75683;HTU21D;64295;44.772;39.872;2023-04-03T08:08:14;12.74;66.20
75683;HTU21D;64295;44.772;39.872;2023-04-03T08:10:41;12.78;66.10
75683;HTU21D;64295;44.772;39.872;2023-04-03T08:13:07;12.86;66.01
75683;HTU21D;64295;44.772;39.872;2023-04-03T08:15:34;12.95;65.95
75683;HTU21D;64295;44.772;39.872;2023-04-03T08:18:00;13.04;65.69
75683;HTU21D;64295;44.772;39.872;2023-04-03T08:20:27;13.12;65.50
75683;HTU21D;64295;44.772;39.872;2023-04-03T08:22:53;13.24;65.40
75683;HTU21D;64295;44.772;39.872;2023-04-03T08:25:19;13.33;64.97
75683;HTU21D;64295;44.772;39.872;2023-04-03T08:27:45;13.44;64.76
75683;HTU21D;64295;44.772;39.872;2023-04-03T08:30:11;13.53;64.56
75683;HTU21D;64295;44.772;39.872;2023-04-03T08:32:37;13.58;64.36
75683;HTU21D;64295;44.772;39.872;2023-04-03T08:35:04;13.62;64.19
75683;HTU21D;64295;44.772;39.872;2023-04-03T08:37:30;13.64;64.09
75683;HTU21D;64295;44.772;39.872;2023-04-03T08:39:57;13.68;63.94
75683;HTU21D;64295;44.772;39.872;2023-04-03T08:42:54;13.69;63.85
75683;HTU21D;64295;44.772;39.872;2023-04-03T08:50:47;13.76;63.60
75683;HTU21D;64295;44.772;39.872;2023-04-03T08:53:28;13.81;63.46
75683;HTU21D;64295;44.772;39.872;2023-04-03T08:55:58;13.84;63.31
75683;HTU21D;64295;44.772;39.872;2023-04-03T08:58:30;13.89;63.16
75683;HTU21D;64295;44.772;39.872;2023-04-03T09:01:01;13.95;63.10
75683;HTU21D;64295;44.772;39.872;2023-04-03T09:03:36;14.04;62.97
75683;HTU21D;64295;44.772;39.872;2023-04-03T09:06:08;14.11;62.82
75683;HTU21D;64295;44.772;39.872;2023-04-03T09:14:40;14.21;62.39
75683;HTU21D;64295;44.772;39.872;2023-04-03T09:22:26;14.33;62.15
75683;HTU21D;64295;44.772;39.872;2023-04-03T09:27:41;14.41;61.73
75683;HTU21D;64295;44.772;39.872;2023-04-03T09:30:21;14.43;61.63
75683;HTU21D;64295;44.772;39.872;2023-04-03T09:32:50;14.45;61.54
75683;HTU21D;64295;44.772;39.872;2023-04-03T09:37:46;14.52;61.27
75683;HTU21D;64295;44.772;39.872;2023-04-03T09:42:59;14.63;60.99
75683;HTU21D;64295;44.772;39.872;2023-04-03T09:45:28;14.71;60.84
75683;HTU21D;64295;44.772;39.872;2023-04-03T09:48:22;14.77;60.69
75683;HTU21D;64295;44.772;39.872;2023-04-03T09:53:34;14.87;60.51
75683;HTU21D;64295;44.772;39.872;2023-04-03T09:56:04;14.91;60.35
75683;HTU21D;64295;44.772;39.872;2023-04-03T09:58:38;14.96;60.24
75683;HTU21D;64295;44.772;39.872;2023-04-03T10:01:06;14.98;60.13
75683;HTU21D;64295;44.772;39.872;2023-04-03T10:03:45;15.00;60.09
75683;HTU21D;64295;44.772;39.872;2023-04-03T10:06:32;15.03;59.97
75683;HTU21D;64295;44.772;39.872;2023-04-03T10:09:04;15.03;59.73
75683;HTU21D;64295;44.772;39.872;2023-04-03T10:11:31;15.01;59.65
75683;HTU21D;64295;44.772;39.872;2023-04-03T10:13:58;15.01;59.58
75683;HTU21D;64295;44.772;39.872;2023-04-03T10:16:52;15.01;58.96
75683;HTU21D;64295;44.772;39.872;2023-04-03T10:22:16;14.93;59.03
75683;HTU21D;64295;44.772;39.872;2023-04-03T10:45:21;15.01;58.86
75683;HTU21D;64295;44.772;39.872;2023-04-03T10:56:31;15.07;58.82
75683;HTU21D;64295;44.772;39.872;2023-04-03T10:59:34;15.09;58.80
75683;HTU21D;64295;44.772;39.872;2023-04-03T11:04:53;15.16;58.70
75683;HTU21D;64295;44.772;39.872;2023-04-03T11:07:24;15.18;58.70
75683;HTU21D;64295;44.772;39.872;2023-04-03T11:10:05;15.23;58.68
75683;HTU21D;64295;44.772;39.872;2023-04-03T11:12:48;15.26;58.66
75683;HTU21D;64295;44.772;39.872;2023-04-03T11:15:19;15.31;58.62
75683;HTU21D;64295;44.772;39.872;2023-04-03T11:18:02;15.38;58.51
75683;HTU21D;64295;44.772;39.872;2023-04-03T11:20:32;15.42;58.37
75683;HTU21D;64295;44.772;39.872;2023-04-03T11:23:24;15.45;58.09
75683;HTU21D;64295;44.772;39.872;2023-04-03T11:25:56;15.49;57.93
75683;HTU21D;64295;44.772;39.872;2023-04-03T11:28:27;15.55;57.73
75683;HTU21D;64295;44.772;39.872;2023-04-03T11:31:02;15.56;57.51
75683;HTU21D;64295;44.772;39.872;2023-04-03T11:33:58;15.58;57.36
75683;HTU21D;64295;44.772;39.872;2023-04-03T11:36:31;15.57;57.26
75683;HTU21D;64295;44.772;39.872;2023-04-03T11:39:26;15.59;57.03
75683;HTU21D;64295;44.772;39.872;2023-04-03T11:41:53;15.59;57.00
75683;HTU21D;64295;44.772;39.872;2023-04-03T11:44:33;15.59;56.84
75683;HTU21D;64295;44.772;39.872;2023-04-03T11:47:00;15.61;56.75
75683;HTU21D;64295;44.772;39.872;2023-04-03T12:14:03;15.86;56.03
75683;HTU21D;64295;44.772;39.872;2023-04-03T12:16:45;15.85;56.05
75683;HTU21D;64295;44.772;39.872;2023-04-03T12:27:26;15.73;56.69
75683;HTU21D;64295;44.772;39.872;2023-04-03T12:41:27;15.60;57.72
75683;HTU21D;64295;44.772;39.872;2023-04-03T12:46:38;15.53;58.13
75683;HTU21D;64295;44.772;39.872;2023-04-03T12:49:20;15.48;58.31
75683;HTU21D;64295;44.772;39.872;2023-04-03T12:51:48;15.45;58.45
75683;HTU21D;64295;44.772;39.872;2023-04-03T12:54:30;15.43;58.61
75683;HTU21D;64295;44.772;39.872;2023-04-03T12:57:30;15.41;58.68
75683;HTU21D;64295;44.772;39.872;2023-04-03T12:59:58;15.38;58.76
75683;HTU21D;64295;44.772;39.872;2023-04-03T13:02:28;15.37;58.90
75683;HTU21D;64295;44.772;39.872;2023-04-03T13:04:59;15.34;59.12
75683;HTU21D;64295;44.772;39.872;2023-04-03T13:07:32;15.30;59.34
75683;HTU21D;64295;44.772;39.872;2023-04-03T13:10:02;15.25;59.48
75683;HTU21D;64295;44.772;39.872;2023-04-03T13:12:28;15.22;59.54
75683;HTU21D;64295;44.772;39.872;2023-04-03T13:14:56;15.22;59.70
75683;HTU21D;64295;44.772;39.872;2023-04-03T13:17:24;15.19;59.78
75683;HTU21D;64295;44.772;39.872;2023-04-03T13:19:50;15.23;59.81
75683;HTU21D;64295;44.772;39.872;2023-04-03T13:22:40;15.23;59.81
75683;HTU21D;64295;44.772;39.872;2023-04-03T13:25:11;15.23;59.82
75683;HTU21D;64295;44.772;39.872;2023-04-03T13:27:38;15.23;59.86
75683;HTU21D;64295;44.772;39.872;2023-04-03T13:30:05;15.24;59.97
75683;HTU21D;64295;44.772;39.872;2023-04-03T13:32:32;15.19;60.07
75683;HTU21D;64295;44.772;39.872;2023-04-03T13:34:59;15.17;60.23
75683;HTU21D;64295;44.772;39.872;2023-04-03T13:37:30;15.15;60.21
75683;HTU21D;64295;44.772;39.872;2023-04-03T13:42:35;15.16;60.09
75683;HTU21D;64295;44.772;39.872;2023-04-03T13:45:21;15.18;60.06
75683;HTU21D;64295;44.772;39.872;2023-04-03T13:47:51;15.19;59.97
75683;HTU21D;64295;44.772;39.872;2023-04-03T13:50:24;15.18;59.96
75683;HTU21D;64295;44.772;39.872;2023-04-03T13:53:12;15.19;59.93
75683;HTU21D;64295;44.772;39.872;2023-04-03T13:56:09;15.22;59.98
75683;HTU21D;64295;44.772;39.872;2023-04-03T14:01:25;15.16;60.26
75683;HTU21D;64295;44.772;39.872;2023-04-03T14:03:55;15.18;60.51
75683;HTU21D;64295;44.772;39.872;2023-04-03T14:06:22;15.15;60.78
75683;HTU21D;64295;44.772;39.872;2023-04-03T14:08:48;15.08;61.11
75683;HTU21D;64295;44.772;39.872;2023-04-03T14:11:18;15.02;61.44
75683;HTU21D;64295;44.772;39.872;2023-04-03T14:13:45;14.99;61.67
75683;HTU21D;64295;44.772;39.872;2023-04-03T14:16:20;14.96;61.99
75683;HTU21D;64295;44.772;39.872;2023-04-03T14:18:47;14.87;62.35
75683;HTU21D;64295;44.772;39.872;2023-04-03T14:21:16;14.81;62.70
75683;HTU21D;64295;44.772;39.872;2023-04-03T14:23:44;14.79;62.89
75683;HTU21D;64295;44.772;39.872;2023-04-03T14:26:15;14.80;63.08
75683;HTU21D;64295;44.772;39.872;2023-04-03T14:28:44;14.79;63.11
75683;HTU21D;64295;44.772;39.872;2023-04-03T14:31:11;14.78;63.21
75683;HTU21D;64295;44.772;39.872;2023-04-03T14:33:37;14.77;63.37
75683;HTU21D;64295;44.772;39.872;2023-04-03T14:36:14;14.79;63.60
75683;HTU21D;64295;44.772;39.872;2023-04-03T14:38:41;14.80;63.52
75683;HTU21D;64295;44.772;39.872;2023-04-03T14:41:09;14.83;63.55
75683;HTU21D;64295;44.772;39.872;2023-04-03T14:43:36;14.88;63.52
75683;HTU21D;64295;44.772;39.872;2023-04-03T14:46:02;14.99;63.36
75683;HTU21D;64295;44.772;39.872;2023-04-03T14:48:29;15.12;63.09
75683;HTU21D;64295;44.772;39.872;2023-04-03T14:50:55;15.16;62.82
75683;HTU21D;64295;44.772;39.872;2023-04-03T14:53:21;15.19;62.65
75683;HTU21D;64295;44.772;39.872;2023-04-03T14:55:54;15.21;62.51
75683;HTU21D;64295;44.772;39.872;2023-04-03T14:58:21;15.17;62.50
75683;HTU21D;64295;44.772;39.872;2023-04-03T15:00:50;15.15;62.49
75683;HTU21D;64295;44.772;39.872;2023-04-03T15:03:16;15.09;62.40
75683;HTU21D;64295;44.772;39.872;2023-04-03T15:05:52;15.02;62.45
75683;HTU21D;64295;44.772;39.872;2023-04-03T15:08:23;15.01;62.52
75683;HTU21D;64295;44.772;39.872;2023-04-03T15:10:50;14.98;62.40
75683;HTU21D;64295;44.772;39.872;2023-04-03T15:13:22;14.95;62.43
75683;HTU21D;64295;44.772;39.872;2023-04-03T15:15:50;14.91;62.42
75683;HTU21D;64295;44.772;39.872;2023-04-03T15:18:27;14.86;62.43
75683;HTU21D;64295;44.772;39.872;2023-04-03T15:20:54;14.83;62.38
75683;HTU21D;64295;44.772;39.872;2023-04-03T15:23:20;14.80;62.41
75683;HTU21D;64295;44.772;39.872;2023-04-03T15:25:51;14.72;62.37
75683;HTU21D;64295;44.772;39.872;2023-04-03T15:28:32;14.65;62.35
75683;HTU21D;64295;44.772;39.872;2023-04-03T15:30:58;14.59;62.31
75683;HTU21D;64295;44.772;39.872;2023-04-03T15:33:24;14.54;62.22
75683;HTU21D;64295;44.772;39.872;2023-04-03T15:35:50;14.49;62.21
75683;HTU21D;64295;44.772;39.872;2023-04-03T15:38:16;14.40;62.15
75683;HTU21D;64295;44.772;39.872;2023-04-03T15:40:42;14.34;62.16
75683;HTU21D;64295;44.772;39.872;2023-04-03T15:43:09;14.25;62.16
75683;HTU21D;64295;44.772;39.872;2023-04-03T15:45:36;14.19;62.21
75683;HTU21D;64295;44.772;39.872;2023-04-03T15:48:03;14.17;62.15
75683;HTU21D;64295;44.772;39.872;2023-04-03T15:50:32;14.11;62.12
75683;HTU21D;64295;44.772;39.872;2023-04-03T15:52:58;14.07;62.14
75683;HTU21D;64295;44.772;39.872;2023-04-03T15:55:25;14.01;62.17
75683;HTU21D;64295;44.772;39.872;2023-04-03T15:57:52;13.99;62.15
75683;HTU21D;64295;44.772;39.872;2023-04-03T16:00:19;13.96;62.19
75683;HTU21D;64295;44.772;39.872;2023-04-03T16:02:47;13.92;62.24
75683;HTU21D;64295;44.772;39.872;2023-04-03T16:05:15;13.86;62.30
75683;HTU21D;64295;44.772;39.872;2023-04-03T16:07:43;13.82;62.32
75683;HTU21D;64295;44.772;39.872;2023-04-03T16:10:10;13.75;62.37
75683;HTU21D;64295;44.772;39.872;2023-04-03T16:12:36;13.71;62.47
75683;HTU21D;64295;44.772;39.872;2023-04-03T16:15:03;13.67;62.53
75683;HTU21D;64295;44.772;39.872;2023-04-03T16:17:29;13.65;62.58
75683;HTU21D;64295;44.772;39.872;2023-04-03T16:19:56;13.61;62.71
75683;HTU21D;64295;44.772;39.872;2023-04-03T16:22:24;13.58;62.77
75683;HTU21D;64295;44.772;39.872;2023-04-03T16:24:50;13.52;62.88
75683;HTU21D;64295;44.772;39.872;2023-04-03T16:27:16;13.48;62.98
75683;HTU21D;64295;44.772;39.872;2023-04-03T16:29:42;13.45;63.05
75683;HTU21D;64295;44.772;39.872;2023-04-03T16:32:08;13.41;63.11
75683;HTU21D;64295;44.772;39.872;2023-04-03T16:34:34;13.33;63.30
75683;HTU21D;64295;44.772;39.872;2023-04-03T16:37:00;13.24;63.53
75683;HTU21D;64295;44.772;39.872;2023-04-03T16:39:26;13.20;63.52
75683;HTU21D;64295;44.772;39.872;2023-04-03T16:41:52;13.17;63.54
75683;HTU21D;64295;44.772;39.872;2023-04-03T16:44:18;13.15;63.59
75683;HTU21D;64295;44.772;39.872;2023-04-03T16:46:44;13.14;63.62
75683;HTU21D;64295;44.772;39.872;2023-04-03T16:49:10;13.11;63.68
75683;HTU21D;64295;44.772;39.872;2023-04-03T16:51:36;13.07;63.76
75683;HTU21D;64295;44.772;39.872;2023-04-03T16:54:02;13.03;63.83
75683;HTU21D;64295;44.772;39.872;2023-04-03T16:56:28;12.97;63.92
75683;HTU21D;64295;44.772;39.872;2023-04-03T16:58:54;12.91;64.04
75683;HTU21D;64295;44.772;39.872;2023-04-03T17:01:24;12.87;64.12
75683;HTU21D;64295;44.772;39.872;2023-04-03T17:04:03;12.80;64.20
75683;HTU21D;64295;44.772;39.872;2023-04-03T17:06:29;12.71;64.27
75683;HTU21D;64295;44.772;39.872;2023-04-03T17:08:55;12.64;64.43
75683;HTU21D;64295;44.772;39.872;2023-04-03T17:11:28;12.55;64.57
75683;HTU21D;64295;44.772;39.872;2023-04-03T17:13:54;12.50;64.66
75683;HTU21D;64295;44.772;39.872;2023-04-03T17:16:20;12.46;64.69